Terminal Aerodrome Forecast
Issued by NWS Cleveland, OH

Home | Current Version | Previous Version | Graphics & Text | Print | Product List | Glossary On
Versions: 1 2 3 4 5 6 7 8 9 10 11 12 13 14 15 16 17 18 19 20 21 22 23 24 25 26 27 28 29 30 31
000
FTUS41 KCLE 160400 AAC
TAFERI
TAF AMD
KERI 160446Z 1605/1624 13010KT P6SM SCT015 OVC250
     FM160900 13008KT P6SM -SHRA SCT025 OVC080
      TEMPO 1611/1613 5SM -SHRA OVC025
     FM161300 15008KT 5SM -RA BR SCT008 OVC015
     FM161700 19010KT 4SM -SHRA BR OVC008=

USA.gov is the U.S. government's official web portal to all federal, state and local government web resources and services.